Time;durP1;ratioP1;P1;durP2;ratioP2;P2;SDS_P1;SDS_P2;PMS_P1;PMS_P2;Temp;Humidity;BMP_temperature;BMP_pressure;BME280_temperature;BME280_humidity;BME280_pressure;Samples;Min_cycle;Max_cycle;Signal;HPM_P1;HPM_P2
2023/03/06 00:01:26;;;;;;;2.27;1.27;;;;;;;2.42;94.16;100071.16;6002884;28;20510;-73
2023/03/06 00:04:22;;;;;;;2.83;0.98;;;;;;;2.42;94.12;100060.72;6001052;28;20074;-73
2023/03/06 00:07:17;;;;;;;3.10;0.83;;;;;;;2.38;94.46;100066.16;6003201;28;20038;-72
2023/03/06 00:10:14;;;;;;;1.95;0.95;;;;;;;2.38;94.31;100057.47;6002840;28;20509;-73
2023/03/06 00:13:12;;;;;;;3.20;1.27;;;;;;;2.40;94.82;100056.41;6002274;28;20038;-73
2023/03/06 00:16:07;;;;;;;2.33;1.00;;;;;;;2.36;94.51;100054.94;6002970;28;20031;-73
2023/03/06 00:19:02;;;;;;;4.63;1.10;;;;;;;2.38;94.44;100052.25;6002681;28;20031;-72
2023/03/06 00:21:58;;;;;;;5.30;1.60;;;;;;;2.25;95.30;100039.22;6002537;28;20081;-73
2023/03/06 00:24:53;;;;;;;3.13;1.53;;;;;;;2.30;94.54;100044.94;6003085;28;20042;-73
2023/03/06 00:27:49;;;;;;;4.67;1.20;;;;;;;2.20;94.68;100038.69;5998498;28;20043;-73
2023/03/06 00:30:46;;;;;;;6.15;2.45;;;;;;;2.23;95.27;100048.94;6001959;28;20058;-73
2023/03/06 00:33:42;;;;;;;2.53;1.20;;;;;;;2.16;94.91;100031.19;6001888;28;20034;-73
2023/03/06 00:36:37;;;;;;;3.10;1.48;;;;;;;2.19;95.77;100031.81;6002020;28;20070;-73
2023/03/06 00:39:32;;;;;;;7.30;1.17;;;;;;;2.28;95.91;100049.44;6002675;28;20101;-73
2023/03/06 00:42:28;;;;;;;4.63;1.50;;;;;;;2.17;96.50;100033.69;6001970;28;20101;-74
2023/03/06 00:45:23;;;;;;;3.83;1.37;;;;;;;2.16;95.92;100025.94;6002557;28;20477;-74
2023/03/06 00:48:18;;;;;;;6.27;1.67;;;;;;;2.21;95.86;100035.13;6002500;28;20467;-73
2023/03/06 00:51:15;;;;;;;4.67;1.43;;;;;;;2.18;96.50;100035.34;6002489;28;20045;-74
2023/03/06 00:54:10;;;;;;;3.70;1.45;;;;;;;2.18;96.67;100029.28;6001811;28;20035;-73
2023/03/06 00:57:06;;;;;;;4.27;1.50;;;;;;;2.10;96.94;100016.75;6002708;28;20097;-74
2023/03/06 01:00:02;;;;;;;5.32;1.80;;;;;;;2.19;96.97;100023.13;6002565;28;20034;-74
2023/03/06 01:02:58;;;;;;;4.78;1.70;;;;;;;1.98;97.41;100001.97;6001726;28;20077;-74
2023/03/06 01:05:53;;;;;;;4.03;1.70;;;;;;;2.10;97.24;100014.16;6002344;28;20081;-73
2023/03/06 01:08:48;;;;;;;2.50;1.23;;;;;;;2.12;97.11;100012.25;6002151;28;20058;-74
2023/03/06 01:11:43;;;;;;;3.23;1.40;;;;;;;2.00;97.55;100004.47;6002320;28;20035;-74
2023/03/06 01:14:39;;;;;;;3.93;1.60;;;;;;;1.99;97.31;99993.16;6001345;28;20050;-73
2023/03/06 01:17:34;;;;;;;4.30;1.40;;;;;;;2.00;98.18;100010.53;6002367;28;20027;-74
2023/03/06 01:20:30;;;;;;;5.87;1.73;;;;;;;1.99;97.33;99998.38;6002227;28;20104;-73
2023/03/06 01:23:25;;;;;;;5.57;1.50;;;;;;;1.94;98.22;99995.28;5999208;28;20093;-73
2023/03/06 01:26:20;;;;;;;4.47;2.27;;;;;;;1.97;98.51;99994.22;6002121;28;20031;-73
2023/03/06 01:29:15;;;;;;;4.17;1.60;;;;;;;1.94;98.73;99995.28;6001876;28;20470;-72
2023/03/06 01:32:11;;;;;;;6.13;1.90;;;;;;;1.83;98.37;99992.59;6000860;28;20042;-74
2023/03/06 01:35:06;;;;;;;4.33;1.50;;;;;;;1.79;98.06;99991.16;6001948;28;20066;-73
2023/03/06 01:38:01;;;;;;;5.82;1.58;;;;;;;1.78;98.84;99990.31;6001606;28;20051;-72
2023/03/06 01:40:57;;;;;;;4.67;1.87;;;;;;;1.72;98.54;99976.81;6002273;28;20068;-73
2023/03/06 01:43:52;;;;;;;8.53;1.97;;;;;;;1.70;99.58;99981.34;6000626;28;20034;-72
2023/03/06 01:46:47;;;;;;;5.43;2.57;;;;;;;1.70;99.60;99981.34;6002102;28;20289;-73
2023/03/06 01:49:44;;;;;;;7.88;2.00;;;;;;;1.73;99.80;99986.34;6005934;28;20051;-73
2023/03/06 01:52:47;;;;;;;4.73;2.00;;;;;;;1.71;100.00;99983.00;6004359;28;20433;-72
2023/03/06 01:55:42;;;;;;;7.53;2.38;;;;;;;1.74;100.00;99982.78;6006342;28;20118;-73
2023/03/06 01:58:39;;;;;;;6.47;2.17;;;;;;;1.69;100.00;99971.81;6006196;28;20030;-73
2023/03/06 02:01:34;;;;;;;9.20;2.42;;;;;;;1.62;99.78;99963.59;6004843;28;20023;-73
2023/03/06 02:04:30;;;;;;;4.20;2.00;;;;;;;1.63;99.74;99960.00;6003831;28;20459;-73
2023/03/06 02:07:25;;;;;;;7.00;2.03;;;;;;;1.64;99.96;99976.53;6005656;28;20092;-73
2023/03/06 02:10:21;;;;;;;6.47;2.30;;;;;;;1.64;100.00;99973.91;6004777;28;20038;-72
2023/03/06 02:13:16;;;;;;;8.40;2.92;;;;;;;1.66;100.00;99974.63;6004126;28;20050;-73
2023/03/06 02:16:12;;;;;;;5.13;2.60;;;;;;;1.62;100.00;99955.75;6005871;28;20438;-74
2023/03/06 02:19:32;;;;;;;7.30;2.72;;;;;;;1.69;100.00;99958.75;6005489;28;20115;-73
2023/03/06 02:22:42;;;;;;;6.35;2.35;;;;;;;1.71;100.00;99957.69;6000449;28;20062;-73
2023/03/06 02:25:40;;;;;;;7.43;2.03;;;;;;;1.71;100.00;99951.66;6020658;28;20190;-73
2023/03/06 02:28:35;;;;;;;4.82;2.30;;;;;;;1.66;100.00;99930.22;6005757;28;20035;-73
2023/03/06 02:31:31;;;;;;;6.50;2.37;;;;;;;1.78;99.74;99950.25;6005551;28;20053;-74
2023/03/06 02:34:27;;;;;;;5.90;2.33;;;;;;;1.91;99.78;99956.28;6004031;28;20033;-73
2023/03/06 02:37:23;;;;;;;5.40;2.10;;;;;;;1.97;99.29;99958.47;6005342;28;20042;-73
2023/03/06 02:40:21;;;;;;;4.95;2.38;;;;;;;2.00;98.83;99945.16;6005199;28;20118;-74
2023/03/06 02:43:22;;;;;;;5.68;2.00;;;;;;;1.98;98.35;99941.00;6004317;28;20046;-74
2023/03/06 02:46:17;;;;;;;10.25;2.92;;;;;;;2.00;98.83;99945.16;6019796;28;20038;-74
2023/03/06 02:49:12;;;;;;;10.13;2.40;;;;;;;1.92;98.55;99929.22;6005169;28;20026;-74
2023/03/06 02:52:08;;;;;;;5.33;2.13;;;;;;;2.00;99.34;99932.09;6004504;28;20207;-73
2023/03/06 02:55:03;;;;;;;11.50;3.47;;;;;;;1.95;98.82;99918.53;6004899;28;20043;-74
2023/03/06 02:57:59;;;;;;;6.10;2.97;;;;;;;1.94;98.95;99916.84;6004341;28;20039;-72
2023/03/06 03:00:54;;;;;;;6.57;2.88;;;;;;;2.03;98.99;99920.59;6004696;28;20054;-73
2023/03/06 03:03:50;;;;;;;9.17;3.40;;;;;;;1.97;99.35;99923.63;6004344;28;20795;-73
2023/03/06 03:06:45;;;;;;;11.23;3.53;;;;;;;1.88;98.41;99906.84;6004673;28;20070;-73
2023/03/06 03:09:40;;;;;;;7.20;2.60;;;;;;;1.90;100.00;99907.59;6004514;28;20043;-73
2023/03/06 03:12:36;;;;;;;6.77;3.23;;;;;;;1.92;99.91;99918.75;6003014;28;20394;-74
2023/03/06 03:15:31;;;;;;;7.20;3.20;;;;;;;1.85;99.30;99899.22;6004038;28;20282;-74
2023/03/06 03:18:26;;;;;;;8.15;2.90;;;;;;;1.81;99.96;99905.63;6004659;28;20035;-72
2023/03/06 03:21:22;;;;;;;6.75;3.15;;;;;;;1.79;99.73;99897.06;6003962;28;20035;-72
2023/03/06 03:24:17;;;;;;;5.95;2.88;;;;;;;1.89;100.00;99903.28;6003544;28;20041;-74
2023/03/06 03:27:13;;;;;;;7.83;3.07;;;;;;;1.81;100.00;99887.31;6003590;28;20035;-73
2023/03/06 03:30:09;;;;;;;6.85;3.03;;;;;;;1.87;100.00;99896.50;6004147;28;20487;-74
2023/03/06 03:33:04;;;;;;;7.07;2.90;;;;;;;1.80;100.00;99893.50;6003629;28;20050;-72
2023/03/06 03:36:02;;;;;;;8.67;3.37;;;;;;;1.75;99.61;99883.38;6003947;28;20046;-72
2023/03/06 03:38:57;;;;;;;9.02;2.63;;;;;;;1.84;99.79;99887.09;6002767;28;20019;-73
2023/03/06 03:41:52;;;;;;;10.23;3.27;;;;;;;1.82;100.00;99896.00;6002965;28;20042;-72
2023/03/06 03:44:48;;;;;;;5.10;2.70;;;;;;;1.83;100.00;99884.59;6003927;28;20465;-73
2023/03/06 03:47:43;;;;;;;7.70;2.77;;;;;;;1.54;99.83;99847.50;6003671;28;20031;-72
2023/03/06 03:50:38;;;;;;;7.40;3.07;;;;;;;1.77;100.00;99875.41;6003700;28;20121;-72
2023/03/06 03:53:34;;;;;;;9.77;3.23;;;;;;;1.73;99.99;99863.53;6002601;28;20034;-73
2023/03/06 03:56:29;;;;;;;6.30;2.50;;;;;;;1.78;100.00;99867.47;6003949;28;20329;-73
2023/03/06 03:59:25;;;;;;;9.50;2.87;;;;;;;1.86;100.00;99874.75;6003502;28;20038;-71
2023/03/06 04:02:20;;;;;;;8.13;3.63;;;;;;;1.78;99.56;99861.41;6003063;28;20110;-72
2023/03/06 04:05:15;;;;;;;8.82;2.95;;;;;;;1.86;99.76;99866.91;6001652;28;20278;-71
2023/03/06 04:08:11;;;;;;;6.10;2.80;;;;;;;1.80;99.57;99852.50;6002781;28;20027;-71
2023/03/06 04:11:06;;;;;;;6.57;2.78;;;;;;;1.80;99.04;99846.44;6002672;28;20038;-72
2023/03/06 04:14:02;;;;;;;7.53;3.43;;;;;;;1.90;99.26;99859.69;6001939;28;20038;-73
2023/03/06 04:16:57;;;;;;;12.23;4.53;;;;;;;1.90;99.40;99868.38;6003395;28;20033;-72
2023/03/06 04:19:53;;;;;;;6.97;2.60;;;;;;;1.87;98.94;99852.91;6001583;28;20045;-73
2023/03/06 04:22:48;;;;;;;7.10;2.85;;;;;;;1.86;99.46;99855.63;6001993;28;20042;-73
2023/03/06 04:25:44;;;;;;;7.10;2.77;;;;;;;1.77;98.97;99833.59;6003119;28;20042;-73
2023/03/06 04:28:39;;;;;;;6.32;2.80;;;;;;;1.82;99.32;99834.13;6002354;28;20030;-72
2023/03/06 04:31:34;;;;;;;6.40;2.50;;;;;;;1.95;99.13;99845.34;6001479;28;20035;-73
2023/03/06 04:34:30;;;;;;;8.20;2.33;;;;;;;1.92;99.25;99849.94;6002176;28;20073;-73
2023/03/06 04:37:25;;;;;;;7.83;2.93;;;;;;;1.86;98.97;99840.78;6002367;28;20367;-73
2023/03/06 04:40:27;;;;;;;5.32;2.17;;;;;;;1.87;98.79;99839.84;6002675;28;20065;-73
2023/03/06 04:43:22;;;;;;;9.68;3.35;;;;;;;1.89;98.74;99845.78;6001969;28;20482;-73
2023/03/06 04:46:18;;;;;;;6.33;2.63;;;;;;;1.78;98.25;99827.44;6002867;28;20049;-73
2023/03/06 04:49:13;;;;;;;8.30;2.60;;;;;;;1.84;99.25;99844.44;6001769;28;20030;-72
2023/03/06 04:52:08;;;;;;;9.47;3.00;;;;;;;1.80;100.00;99836.00;6000248;28;20043;-72
2023/03/06 04:55:07;;;;;;;4.70;2.47;;;;;;;1.75;99.79;99827.66;6002612;28;20110;-72
2023/03/06 04:58:03;;;;;;;8.43;2.75;;;;;;;1.71;100.00;99828.84;6002344;28;20399;-72
2023/03/06 05:00:58;;;;;;;8.50;2.67;;;;;;;1.76;100.00;99831.97;6002626;28;20047;-72
2023/03/06 05:03:53;;;;;;;5.87;2.60;;;;;;;1.86;100.00;99847.78;6001986;28;20042;-73
2023/03/06 05:06:49;;;;;;;6.07;2.57;;;;;;;1.74;100.00;99831.22;6002347;28;20494;-72
2023/03/06 05:09:44;;;;;;;6.23;2.47;;;;;;;1.73;100.00;99824.34;6002657;28;20038;-73
2023/03/06 05:12:39;;;;;;;8.30;2.43;;;;;;;1.72;100.00;99830.50;6001276;28;20042;-72
2023/03/06 05:15:35;;;;;;;5.57;2.80;;;;;;;1.70;100.00;99840.22;6002146;28;20391;-73
2023/03/06 05:18:31;;;;;;;4.75;2.30;;;;;;;1.65;100.00;99834.50;6002370;28;20316;-73
2023/03/06 05:21:26;;;;;;;7.88;2.70;;;;;;;1.59;100.00;99827.94;6003069;28;20039;-71
2023/03/06 05:24:21;;;;;;;8.40;3.53;;;;;;;1.64;100.00;99831.06;6006201;28;20038;-72
2023/03/06 05:27:17;;;;;;;9.63;2.87;;;;;;;1.54;100.00;99824.84;6006847;28;20031;-72
2023/03/06 05:30:13;;;;;;;7.03;2.93;;;;;;;1.58;100.00;99830.66;6006813;28;20466;-73
2023/03/06 05:33:08;;;;;;;3.90;2.42;;;;;;;1.55;100.00;99830.91;6006195;28;20035;-72
2023/03/06 05:36:06;;;;;;;6.60;2.80;;;;;;;1.44;100.00;99815.97;6005103;28;20046;-73
2023/03/06 05:39:01;;;;;;;8.35;3.40;;;;;;;1.47;100.00;99822.78;6006693;28;20081;-73
2023/03/06 05:41:57;;;;;;;8.73;2.57;;;;;;;1.42;100.00;99822.25;6005853;28;20027;-72
2023/03/06 05:44:52;;;;;;;5.43;2.07;;;;;;;1.39;100.00;99817.25;6006906;28;20510;-72
2023/03/06 05:47:47;;;;;;;5.10;2.20;;;;;;;1.29;100.00;99811.03;6006424;28;20039;-72
2023/03/06 05:50:43;;;;;;;4.50;2.07;;;;;;;1.28;100.00;99817.22;6006104;28;20130;-72
2023/03/06 05:53:38;;;;;;;6.90;2.33;;;;;;;1.24;100.00;99800.09;5994435;28;97721;-73
2023/03/06 05:56:33;;;;;;;4.73;1.77;;;;;;;1.22;100.00;99809.81;6006796;28;20031;-73
2023/03/06 05:59:31;;;;;;;4.27;1.77;;;;;;;1.14;100.00;99805.16;6006112;28;20043;-73
2023/03/06 06:02:26;;;;;;;4.95;1.88;;;;;;;1.17;100.00;99797.91;6005147;28;20376;-72
2023/03/06 06:05:22;;;;;;;5.20;2.00;;;;;;;1.18;100.00;99812.66;6005610;28;20043;-72
2023/03/06 06:08:17;;;;;;;4.23;1.60;;;;;;;1.16;100.00;99814.53;6006044;28;20031;-72
2023/03/06 06:11:13;;;;;;;5.88;1.65;;;;;;;1.11;100.00;99816.63;6005826;28;20390;-73
2023/03/06 06:14:08;;;;;;;4.07;1.77;;;;;;;1.01;100.00;99799.94;6005407;28;20170;-73
2023/03/06 06:17:03;;;;;;;5.67;1.73;;;;;;;1.03;100.00;99805.06;6006030;28;20031;-72
2023/03/06 06:19:59;;;;;;;7.70;2.60;;;;;;;0.97;100.00;99802.88;6005911;28;20082;-73
2023/03/06 06:22:54;;;;;;;3.60;1.52;;;;;;;0.98;100.00;99809.78;6005244;28;20042;-73
2023/03/06 06:25:50;;;;;;;3.20;1.57;;;;;;;0.94;100.00;99808.31;6005136;28;20077;-73
2023/03/06 06:28:45;;;;;;;5.63;1.30;;;;;;;0.95;100.00;99810.81;6005180;28;20491;-74
2023/03/06 06:31:40;;;;;;;2.60;1.10;;;;;;;0.98;100.00;99815.00;6005385;28;20077;-73
2023/03/06 06:34:36;;;;;;;3.87;1.43;;;;;;;0.83;100.00;99801.25;6003889;28;20043;-72
2023/03/06 06:37:31;;;;;;;4.30;1.23;;;;;;;1.01;100.00;99807.78;6004649;28;20149;-72
2023/03/06 06:40:28;;;;;;;3.78;1.30;;;;;;;0.98;100.00;99815.81;6005644;28;20467;-72
2023/03/06 06:43:23;;;;;;;4.50;1.35;;;;;;;0.89;100.00;99803.44;6004791;28;20111;-73
2023/03/06 06:46:19;;;;;;;3.60;1.50;;;;;;;0.92;100.00;99810.22;6005137;28;20034;-73
2023/03/06 06:49:15;;;;;;;2.00;1.10;;;;;;;0.80;100.00;99790.19;6004194;28;20031;-73
2023/03/06 06:52:10;;;;;;;5.05;1.60;;;;;;;0.78;100.00;99812.94;6004423;28;20037;-73
2023/03/06 06:55:06;;;;;;;2.40;1.20;;;;;;;0.95;100.00;99818.63;6005503;28;20031;-73
2023/03/06 06:58:07;;;;;;;2.70;1.23;;;;;;;0.92;100.00;99821.50;6005060;28;20034;-73
2023/03/06 07:01:07;;;;;;;2.53;1.10;;;;;;;0.86;100.00;99810.63;6004276;28;20546;-73
2023/03/06 07:04:02;;;;;;;3.72;1.23;;;;;;;0.79;100.00;99805.00;5997084;28;20130;-73
2023/03/06 07:06:58;;;;;;;3.50;1.80;;;;;;;0.97;100.00;99816.78;5998446;28;20031;-73
2023/03/06 07:09:54;;;;;;;5.10;1.60;;;;;;;0.89;100.00;99813.88;6004206;28;20033;-72
2023/03/06 07:12:49;;;;;;;4.28;1.70;;;;;;;0.93;100.00;99807.47;6002432;28;20446;-73
2023/03/06 07:15:45;;;;;;;2.73;1.30;;;;;;;1.18;100.00;99819.63;6001426;28;20035;-71
2023/03/06 07:18:40;;;;;;;3.20;1.30;;;;;;;0.98;100.00;99815.00;6005316;28;20058;-73
2023/03/06 07:21:38;;;;;;;3.60;1.55;;;;;;;0.96;100.00;99815.09;5996718;28;20038;-71
2023/03/06 07:24:34;;;;;;;4.95;1.50;;;;;;;0.78;100.00;99805.97;6003306;28;20043;-73
2023/03/06 07:27:29;;;;;;;4.13;2.00;;;;;;;1.11;100.00;99818.41;6003209;28;20034;-72
2023/03/06 07:30:24;;;;;;;4.30;2.03;;;;;;;0.85;100.00;99798.53;6003513;28;20031;-73
2023/03/06 07:33:20;;;;;;;3.47;1.53;;;;;;;0.78;100.00;99803.34;6000629;28;20499;-72
2023/03/06 07:36:16;;;;;;;7.85;2.25;;;;;;;1.00;100.00;99821.78;6002749;28;20120;-73
2023/03/06 07:39:11;;;;;;;4.90;2.15;;;;;;;0.90;100.00;99822.50;6003396;28;20038;-72
2023/03/06 07:42:06;;;;;;;5.57;1.97;;;;;;;0.76;100.00;99805.22;6002115;28;20046;-72
2023/03/06 07:45:03;;;;;;;4.85;2.33;;;;;;;0.70;100.00;99805.66;6003571;28;20031;-70
2023/03/06 07:47:58;;;;;;;6.20;1.90;;;;;;;0.95;100.00;99826.47;6002945;28;20031;-72
2023/03/06 07:50:55;;;;;;;5.40;2.20;;;;;;;0.98;100.00;99799.34;6003274;28;20030;-71
2023/03/06 07:53:51;;;;;;;4.55;1.88;;;;;;;1.13;100.00;99814.75;6002577;28;20478;-72
2023/03/06 07:56:49;;;;;;;7.05;2.38;;;;;;;1.15;100.00;99810.25;6017933;28;20031;-72
2023/03/06 07:59:44;;;;;;;6.72;2.50;;;;;;;1.19;100.00;99814.31;6002947;28;20040;-71
2023/03/06 08:02:40;;;;;;;6.73;2.20;;;;;;;1.22;100.00;99796.75;6001132;28;20035;-72
2023/03/06 08:05:36;;;;;;;7.03;2.40;;;;;;;1.27;100.00;99820.75;6002658;28;20031;-71
2023/03/06 08:08:33;;;;;;;6.60;2.73;;;;;;;1.16;100.00;99811.09;6003072;28;20031;-72
2023/03/06 08:11:29;;;;;;;5.78;2.33;;;;;;;1.24;100.00;99827.03;5995739;28;20035;-71
2023/03/06 08:14:24;;;;;;;6.25;2.22;;;;;;;1.09;100.00;99823.72;6001615;28;20513;-71
2023/03/06 08:17:20;;;;;;;5.07;2.10;;;;;;;1.08;100.00;99819.47;6002492;28;20046;-72
2023/03/06 08:20:17;;;;;;;4.10;1.87;;;;;;;1.07;100.00;99838.66;6002394;28;20045;-73
2023/03/06 08:23:12;;;;;;;7.35;1.90;;;;;;;0.90;100.00;99833.78;6001618;28;20030;-71
2023/03/06 08:26:12;;;;;;;4.23;1.50;;;;;;;0.86;100.00;99821.91;6001763;28;20038;-73
2023/03/06 08:29:08;;;;;;;3.13;1.42;;;;;;;0.68;100.00;99817.13;6001280;28;20038;-72
2023/03/06 08:32:04;;;;;;;4.70;1.95;;;;;;;0.72;100.00;99829.84;5997982;28;20047;-72
2023/03/06 08:35:01;;;;;;;3.03;1.60;;;;;;;0.77;100.00;99832.13;6001307;28;20540;-72
2023/03/06 08:37:56;;;;;;;3.55;1.55;;;;;;;0.84;100.00;99829.03;6000460;28;20395;-73
2023/03/06 08:40:51;;;;;;;4.00;1.40;;;;;;;0.80;100.00;99813.66;5999633;28;20034;-72
2023/03/06 08:43:47;;;;;;;4.00;1.67;;;;;;;1.04;100.00;99825.84;6002012;28;20042;-72
2023/03/06 08:46:42;;;;;;;3.55;1.52;;;;;;;1.00;100.00;99790.47;6002038;28;20039;-72
2023/03/06 08:49:38;;;;;;;4.20;1.43;;;;;;;1.25;100.00;99813.03;6002701;28;20039;-71
2023/03/06 08:52:33;;;;;;;4.40;1.77;;;;;;;1.02;100.00;99812.06;6002027;28;20357;-72
2023/03/06 08:55:29;;;;;;;4.93;1.60;;;;;;;1.35;100.00;99834.09;6002302;28;20088;-72
2023/03/06 08:58:24;;;;;;;3.50;1.43;;;;;;;1.20;100.00;99815.97;6001435;28;20034;-73
2023/03/06 09:01:22;;;;;;;3.20;1.30;;;;;;;1.39;100.00;99836.38;6001833;28;20526;-73
2023/03/06 09:04:17;;;;;;;4.03;2.13;;;;;;;1.26;100.00;99832.97;6001965;28;20034;-73
2023/03/06 09:07:13;;;;;;;3.65;1.30;;;;;;;1.28;100.00;99825.06;6001329;28;20038;-73
2023/03/06 09:10:13;;;;;;;3.20;1.17;;;;;;;1.36;100.00;99843.63;6001830;28;20042;-74
2023/03/06 09:13:08;;;;;;;1.92;0.95;;;;;;;1.34;100.00;99837.66;6000808;28;20109;-73
2023/03/06 09:16:04;;;;;;;2.83;1.33;;;;;;;1.20;100.00;99847.31;6001978;28;20503;-72
2023/03/06 09:18:59;;;;;;;2.35;1.25;;;;;;;0.96;100.00;99853.41;6002471;28;20289;-72
2023/03/06 09:21:56;;;;;;;3.13;1.33;;;;;;;0.86;100.00;99842.78;6001564;28;20038;-72
2023/03/06 09:24:52;;;;;;;3.38;1.55;;;;;;;0.76;100.00;99836.50;6002018;28;20078;-72
2023/03/06 09:27:49;;;;;;;4.38;2.00;;;;;;;0.80;100.00;99851.03;6000776;28;20069;-72
2023/03/06 09:30:44;;;;;;;4.93;1.90;;;;;;;0.58;100.00;99833.41;6002031;28;20146;-73
2023/03/06 09:33:40;;;;;;;3.83;1.47;;;;;;;0.63;100.00;99846.13;6001710;28;20490;-72
2023/03/06 09:36:35;;;;;;;6.00;1.50;;;;;;;0.67;100.00;99846.75;6002294;28;20027;-73
2023/03/06 09:39:30;;;;;;;4.67;1.10;;;;;;;0.83;100.00;99858.66;6001358;28;20285;-72
2023/03/06 09:42:26;;;;;;;3.33;1.40;;;;;;;0.85;100.00;99846.31;6001530;28;20042;-72
2023/03/06 09:45:21;;;;;;;2.80;1.23;;;;;;;1.00;100.00;99855.72;6000769;28;20042;-72
2023/03/06 09:48:19;;;;;;;2.70;1.23;;;;;;;0.90;100.00;99839.00;6002228;28;20035;-72
2023/03/06 09:51:15;;;;;;;2.72;1.27;;;;;;;0.90;100.00;99838.16;6001012;28;20031;-70
2023/03/06 09:54:13;;;;;;;2.65;1.15;;;;;;;0.95;100.00;99852.56;6000349;28;20034;-71
2023/03/06 09:57:26;;;;;;;6.30;1.80;;;;;;;0.71;100.00;99838.59;6001759;28;20039;-73
2023/03/06 10:00:29;;;;;;;4.68;1.63;;;;;;;0.74;100.00;99837.56;6000487;28;20042;-73
2023/03/06 10:03:35;;;;;;;3.25;0.95;;;;;;;0.74;100.00;99854.06;6001372;28;20034;-71
2023/03/06 10:06:33;;;;;;;3.88;1.52;;;;;;;0.65;100.00;99870.34;6001885;28;20039;-71
2023/03/06 10:09:41;;;;;;;4.97;1.52;;;;;;;0.61;100.00;99868.88;6003446;28;20168;-73
2023/03/06 10:12:41;;;;;;;3.92;1.60;;;;;;;0.36;100.00;99842.78;6003700;28;20035;-74
2023/03/06 10:15:40;;;;;;;2.42;1.25;;;;;;;0.44;100.00;99866.56;6004605;28;20505;-75
2023/03/06 10:18:37;;;;;;;3.63;1.75;;;;;;;0.15;100.00;99849.44;5987932;28;20034;-75
2023/03/06 10:21:42;;;;;;;2.72;1.50;;;;;;;0.11;100.00;99858.41;6006117;28;20041;-73
2023/03/06 10:24:46;;;;;;;1.63;0.80;;;;;;;0.15;100.00;99852.03;6005293;28;20031;-74
2023/03/06 10:28:00;;;;;;;2.08;0.98;;;;;;;0.24;100.00;99862.72;6005981;28;20031;-73
2023/03/06 10:31:23;;;;;;;9.32;3.20;;;;;;;0.25;100.00;99861.75;6005258;28;20041;-77
2023/03/06 10:34:23;;;;;;;3.47;2.05;;;;;;;0.24;100.00;99847.06;6005211;28;20031;-75
2023/03/06 10:37:21;;;;;;;4.82;1.95;;;;;;;0.34;100.00;99850.72;6004200;28;20058;-73
2023/03/06 10:40:20;;;;;;;4.53;2.10;;;;;;;0.54;100.00;99837.16;6005659;28;20109;-75
2023/03/06 10:43:16;;;;;;;7.82;3.97;;;;;;;0.44;100.00;99859.59;6019829;28;20035;-73
2023/03/06 10:46:13;;;;;;;3.53;1.52;;;;;;;0.32;100.00;99846.53;6004958;28;20513;-72
2023/03/06 10:49:25;;;;;;;5.95;1.48;;;;;;;0.43;100.00;99865.75;6004001;28;20041;-72
2023/03/06 10:52:21;;;;;;;5.55;1.70;;;;;;;0.35;100.00;99851.56;6004508;28;20042;-75
2023/03/06 10:55:24;;;;;;;3.13;1.58;;;;;;;0.45;100.00;99860.41;6005279;28;20045;-73
2023/03/06 10:58:28;;;;;;;4.13;1.75;;;;;;;0.53;100.00;99861.56;6005098;28;20046;-75
2023/03/06 11:01:23;;;;;;;1.88;1.08;;;;;;;0.57;100.00;99870.84;6005175;28;20046;-76
2023/03/06 11:04:24;;;;;;;2.40;0.87;;;;;;;0.61;100.00;99871.47;6004348;28;20053;-74
2023/03/06 11:07:28;;;;;;;2.13;0.90;;;;;;;0.62;100.00;99864.50;6005054;28;20042;-73
2023/03/06 11:10:23;;;;;;;1.90;0.90;;;;;;;0.66;100.00;99845.06;6004678;28;20034;-74
2023/03/06 11:13:24;;;;;;;6.05;1.95;;;;;;;0.90;100.00;99859.88;6004159;28;20486;-75
2023/03/06 11:16:25;;;;;;;3.15;1.20;;;;;;;0.89;100.00;99841.75;6004681;28;20395;-75
2023/03/06 11:19:27;;;;;;;;;;;;;;;1.12;100.00;99865.28;6004482;28;20438;-74
2023/03/06 11:22:22;;;;;;;2.80;1.40;;;;;;;1.29;100.00;99850.19;6002155;28;19918;-73
2023/03/06 11:25:20;;;;;;;6.20;2.00;;;;;;;1.17;100.00;99857.13;6004557;28;20537;-73
2023/03/06 11:28:22;;;;;;;7.22;2.75;;;;;;;1.02;100.00;99863.41;6004547;28;20052;-73
2023/03/06 11:31:21;;;;;;;3.50;1.60;;;;;;;0.81;100.00;99847.50;6002974;28;20066;-73
2023/03/06 11:34:30;;;;;;;3.83;1.50;;;;;;;0.87;100.00;99854.06;6018756;28;20505;-73
2023/03/06 11:37:31;;;;;;;4.05;1.23;;;;;;;1.28;100.00;99859.81;6002792;28;20494;-73
2023/03/06 11:40:32;;;;;;;3.08;1.73;;;;;;;1.43;100.00;99852.69;6003831;28;20038;-73
2023/03/06 11:43:50;;;;;;;4.13;1.50;;;;;;;1.73;100.00;99845.25;6002183;28;20039;-73
2023/03/06 11:47:10;;;;;;;3.78;1.45;;;;;;;1.66;100.00;99841.38;6019176;28;20122;-73
2023/03/06 11:50:26;;;;;;;3.13;1.75;;;;;;;2.30;100.00;99846.16;6002719;28;20474;-74
2023/03/06 11:53:34;;;;;;;3.25;1.67;;;;;;;2.16;100.00;99835.06;6001724;28;20030;-73
2023/03/06 11:56:35;;;;;;;;;;;;;;;2.18;100.00;99872.38;6001038;28;20042;-72
2023/03/06 12:00:08;;;;;;;3.15;1.30;;;;;;;2.36;100.00;99866.59;5999319;28;19940;-72
2023/03/06 12:03:24;;;;;;;4.45;1.23;;;;;;;2.39;100.00;99873.41;6002482;28;20086;-72
2023/03/06 12:06:28;;;;;;;3.45;1.00;;;;;;;2.26;100.00;99868.25;6003613;28;20496;-72
2023/03/06 12:09:58;;;;;;;5.45;1.20;;;;;;;2.42;100.00;99860.09;6003281;28;20034;-73
2023/03/06 12:13:18;;;;;;;2.25;1.02;;;;;;;2.78;100.00;99854.69;6001659;28;20093;-73
2023/03/06 12:16:32;;;;;;;4.28;1.17;;;;;;;2.56;100.00;99844.19;6002967;28;20491;-72
2023/03/06 12:19:49;;;;;;;3.50;1.40;;;;;;;2.46;100.00;99858.91;6003687;28;20058;-72
2023/03/06 12:23:14;;;;;;;5.35;1.20;;;;;;;2.30;100.00;99846.16;6002513;28;20047;-73
2023/03/06 12:26:34;;;;;;;4.28;1.38;;;;;;;2.33;100.00;99863.41;6002891;28;20062;-72
2023/03/06 12:29:48;;;;;;;4.32;1.20;;;;;;;2.34;100.00;99852.81;6002816;28;20034;-73
2023/03/06 12:32:51;;;;;;;2.05;1.00;;;;;;;2.09;100.00;99829.44;6002010;28;20046;-74
2023/03/06 12:36:10;;;;;;;8.40;1.88;;;;;;;2.25;100.00;99800.38;6001636;28;20517;-73
2023/03/06 12:39:42;;;;;;;3.88;0.90;;;;;;;2.42;100.00;99838.34;6001997;28;20093;-73
2023/03/06 12:43:09;;;;;;;1.52;0.60;;;;;;;2.45;100.00;99815.38;6017208;28;20109;-73
2023/03/06 12:46:11;;;;;;;1.85;0.88;;;;;;;2.73;100.00;99833.25;6001821;28;20046;-73
2023/03/06 12:49:25;;;;;;;3.50;0.80;;;;;;;2.52;100.00;99828.84;6002056;28;20085;-73
2023/03/06 12:52:29;;;;;;;1.95;0.80;;;;;;;2.36;96.83;99824.75;6002212;28;20042;-73
2023/03/06 12:55:25;;;;;;;1.55;0.60;;;;;;;2.48;95.44;99817.75;5984960;28;20111;-73
2023/03/06 12:58:29;;;;;;;4.18;0.70;;;;;;;2.78;95.64;99814.56;6001559;28;20050;-74
2023/03/06 13:01:42;;;;;;;0.82;0.50;;;;;;;2.92;93.47;99830.06;6002021;28;20034;-74
2023/03/06 13:04:47;;;;;;;2.00;0.70;;;;;;;2.86;92.97;99827.91;6012267;28;20740;-74
2023/03/06 13:08:06;;;;;;;1.85;0.60;;;;;;;2.63;93.77;99827.06;6001758;28;20093;-74
2023/03/06 13:11:17;;;;;;;0.65;0.43;;;;;;;2.66;95.31;99826.00;5994196;28;20376;-74
2023/03/06 13:14:18;;;;;;;2.00;0.75;;;;;;;2.68;94.40;99818.88;5993586;28;20082;-74
2023/03/06 13:17:19;;;;;;;2.47;0.73;;;;;;;2.76;94.66;99811.25;6000301;28;20561;-73
2023/03/06 13:20:15;;;;;;;3.20;1.00;;;;;;;2.81;94.39;99824.81;5998877;28;20050;-74
2023/03/06 13:23:31;;;;;;;3.17;1.00;;;;;;;2.96;91.87;99824.44;6000772;28;20371;-73
2023/03/06 13:26:26;;;;;;;1.60;0.60;;;;;;;3.10;90.58;99828.59;6000937;28;20447;-73
2023/03/06 13:29:36;;;;;;;2.15;0.80;;;;;;;3.50;91.10;99827.13;6000433;28;20031;-74
2023/03/06 13:32:33;;;;;;;2.15;0.85;;;;;;;3.70;89.20;99799.28;5999803;28;20397;-74
2023/03/06 13:35:29;;;;;;;3.08;0.98;;;;;;;3.82;89.51;99810.56;6001913;28;20395;-75
2023/03/06 13:38:34;;;;;;;2.08;0.80;;;;;;;3.76;89.00;99816.28;6000545;28;20031;-74
2023/03/06 13:41:29;;;;;;;1.52;0.85;;;;;;;3.80;90.50;99812.47;5997549;28;20458;-74
2023/03/06 13:44:24;;;;;;;1.98;0.88;;;;;;;3.83;88.16;99812.25;6004686;28;20049;-73
2023/03/06 13:47:30;;;;;;;2.53;0.90;;;;;;;3.66;85.87;99813.59;6003985;28;20063;-73
2023/03/06 13:50:34;;;;;;;1.75;0.70;;;;;;;3.53;86.38;99805.88;6019980;28;20126;-74
2023/03/06 13:53:47;;;;;;;1.30;0.80;;;;;;;3.11;86.81;99798.84;6004237;28;20568;-73
2023/03/06 13:56:51;;;;;;;4.38;1.50;;;;;;;3.38;86.88;99807.13;6004793;28;20623;-73
2023/03/06 14:00:20;;;;;;;2.92;1.08;;;;;;;3.33;90.04;99814.53;6001760;28;20122;-74
2023/03/06 14:03:49;;;;;;;1.48;0.80;;;;;;;2.82;91.99;99810.78;6019826;28;20608;-74
2023/03/06 14:07:03;;;;;;;2.85;1.10;;;;;;;2.55;94.15;99802.44;6005012;28;20394;-74